createdAt,value
2019-02-27T00:00:11.417Z,3.62
2019-02-27T00:01:10.376Z,3.62
2019-02-27T00:02:10.369Z,3.64
2019-02-27T00:03:10.359Z,3.58
2019-02-27T00:04:10.362Z,3.60
2019-02-27T00:05:10.351Z,3.57
2019-02-27T00:06:10.343Z,3.61
2019-02-27T00:07:10.336Z,3.53
2019-02-27T00:08:10.326Z,3.46
2019-02-27T00:09:10.323Z,3.53
2019-02-27T00:10:10.332Z,3.43
2019-02-27T00:11:12.479Z,3.40
2019-02-27T00:12:10.301Z,3.43
2019-02-27T00:13:10.301Z,3.54
2019-02-27T00:14:10.286Z,3.46
2019-02-27T00:15:10.289Z,3.58
2019-02-27T00:16:11.158Z,3.61
2019-02-27T00:17:10.273Z,3.57
2019-02-27T00:18:10.263Z,3.57
2019-02-27T00:19:10.268Z,3.57
2019-02-27T00:20:10.252Z,3.67
2019-02-27T00:21:11.185Z,3.60
2019-02-27T00:22:10.238Z,3.67
2019-02-27T00:23:10.227Z,3.58
2019-02-27T00:24:10.246Z,3.68
2019-02-27T00:25:10.215Z,3.72
2019-02-27T00:26:10.216Z,3.64
2019-02-27T00:27:10.203Z,3.64
2019-02-27T00:28:10.193Z,3.72
2019-02-27T00:29:10.208Z,3.61
2019-02-27T00:30:10.180Z,3.61
2019-02-27T00:31:11.418Z,3.61
2019-02-27T00:32:10.167Z,3.60
2019-02-27T00:33:10.158Z,3.61
2019-02-27T00:34:10.151Z,3.52
2019-02-27T00:35:10.146Z,3.53
2019-02-27T00:36:12.400Z,3.42
2019-02-27T00:37:10.133Z,3.49
2019-02-27T00:38:10.136Z,3.62
2019-02-27T00:39:10.121Z,3.54
2019-02-27T00:40:10.115Z,3.52
2019-02-27T00:41:12.868Z,3.57
2019-02-27T00:42:10.098Z,3.52
2019-02-27T00:43:10.094Z,3.57
2019-02-27T00:44:10.083Z,3.43
2019-02-27T00:45:10.088Z,3.47
2019-02-27T00:46:10.742Z,3.27
2019-02-27T00:47:10.067Z,3.31
2019-02-27T00:48:10.058Z,3.34
2019-02-27T00:49:10.065Z,3.36
2019-02-27T00:50:10.064Z,3.23
2019-02-27T00:51:12.039Z,3.30
2019-02-27T00:52:10.029Z,3.34
2019-02-27T00:53:10.026Z,3.34
2019-02-27T00:54:10.019Z,3.24
2019-02-27T00:55:10.009Z,3.31
2019-02-27T00:56:12.246Z,3.25
2019-02-27T00:57:10.010Z,3.28
2019-02-27T00:58:09.990Z,3.33
2019-02-27T00:59:10.035Z,3.15
2019-02-27T01:00:09.976Z,3.16
2019-02-27T01:01:12.419Z,3.18
2019-02-27T01:02:09.962Z,3.27
2019-02-27T01:03:09.964Z,3.24
2019-02-27T01:04:09.947Z,3.18
2019-02-27T01:05:09.972Z,3.20
2019-02-27T01:06:12.237Z,3.16
2019-02-27T01:07:09.928Z,3.23
2019-02-27T01:08:09.923Z,3.21
2019-02-27T01:09:09.918Z,3.24
2019-02-27T01:10:11.959Z,3.23
2019-02-27T01:11:09.902Z,3.23
2019-02-27T01:12:09.896Z,3.23
2019-02-27T01:13:09.889Z,3.23
2019-02-27T01:14:09.898Z,3.33
2019-02-27T01:15:10.692Z,3.42
2019-02-27T01:16:09.863Z,3.42
2019-02-27T01:17:09.860Z,3.44
2019-02-27T01:18:09.851Z,3.49
2019-02-27T01:19:09.844Z,3.40
2019-02-27T01:20:11.489Z,3.47
2019-02-27T01:21:09.834Z,3.44
2019-02-27T01:22:09.837Z,3.42
2019-02-27T01:23:11.146Z,3.44
2019-02-27T01:24:09.824Z,3.40
2019-02-27T01:25:09.802Z,3.44
2019-02-27T01:26:09.797Z,3.53
2019-02-27T01:27:09.802Z,3.49
2019-02-27T01:28:11.016Z,3.44
2019-02-27T01:29:09.780Z,3.30
2019-02-27T01:30:09.773Z,3.31
2019-02-27T01:31:09.758Z,3.34
2019-02-27T01:32:09.753Z,3.25
2019-02-27T01:33:09.754Z,3.20
2019-02-27T01:34:11.363Z,3.06
2019-02-27T01:35:09.741Z,3.18
2019-02-27T01:36:09.731Z,3.21
2019-02-27T01:37:09.718Z,3.20
2019-02-27T01:38:09.713Z,3.23
2019-02-27T01:39:11.336Z,3.21
2019-02-27T01:40:09.707Z,3.18
2019-02-27T01:41:09.700Z,3.15
2019-02-27T01:42:09.684Z,3.18
2019-02-27T01:43:09.705Z,3.05
2019-02-27T01:44:11.092Z,3.06
2019-02-27T01:45:09.664Z,3.05
2019-02-27T01:46:09.691Z,3.02
2019-02-27T01:47:09.652Z,3.03
2019-02-27T01:48:09.855Z,3.03
2019-02-27T01:49:09.637Z,3.09
2019-02-27T01:50:09.626Z,3.07
2019-02-27T01:51:09.622Z,3.09
2019-02-27T01:52:09.612Z,3.10
2019-02-27T01:53:09.605Z,3.23
2019-02-27T01:54:12.262Z,3.15
2019-02-27T01:55:09.593Z,3.27
2019-02-27T01:56:09.585Z,3.23
2019-02-27T01:57:09.578Z,3.23
2019-02-27T01:58:10.253Z,3.23
2019-02-27T01:59:09.565Z,3.13
2019-02-27T02:00:09.556Z,3.07
2019-02-27T02:01:09.563Z,3.07
2019-02-27T02:02:09.542Z,3.06
2019-02-27T02:03:11.220Z,2.94
2019-02-27T02:04:09.525Z,2.97
2019-02-27T02:05:09.521Z,2.95
2019-02-27T02:06:09.518Z,2.87
2019-02-27T02:07:09.512Z,2.91
2019-02-27T02:08:13.630Z,2.94
2019-02-27T02:09:11.476Z,3.05
2019-02-27T02:10:09.484Z,3.03
2019-02-27T02:11:09.481Z,3.12
2019-02-27T02:12:09.492Z,3.07
2019-02-27T02:13:09.465Z,3.07
2019-02-27T02:14:09.462Z,3.07
2019-02-27T02:15:09.449Z,3.12
2019-02-27T02:16:09.444Z,3.05
2019-02-27T02:17:09.439Z,3.05
2019-02-27T02:18:11.875Z,3.06
2019-02-27T02:19:09.427Z,3.07
2019-02-27T02:20:09.417Z,3.02
2019-02-27T02:21:09.411Z,3.05
2019-02-27T02:22:09.419Z,3.09
2019-02-27T02:23:13.938Z,3.07
2019-02-27T02:24:09.396Z,3.07
2019-02-27T02:25:09.418Z,3.03
2019-02-27T02:26:09.404Z,3.05
2019-02-27T02:27:09.367Z,3.05
2019-02-27T02:28:09.377Z,3.09
2019-02-27T02:29:09.357Z,3.03
2019-02-27T02:30:09.353Z,3.06
2019-02-27T02:31:09.341Z,3.02
2019-02-27T02:32:09.361Z,3.06
2019-02-27T02:33:09.327Z,3.06
2019-02-27T02:34:09.317Z,3.02
2019-02-27T02:35:14.850Z,3.05
2019-02-27T02:36:09.311Z,3.05
2019-02-27T02:37:09.304Z,3.05
2019-02-27T02:38:12.569Z,3.03
2019-02-27T02:39:09.285Z,3.02
2019-02-27T02:40:09.287Z,2.92
2019-02-27T02:41:09.398Z,2.94
2019-02-27T02:42:09.283Z,2.94
2019-02-27T02:43:09.274Z,2.82
2019-02-27T02:44:09.246Z,2.88
2019-02-27T02:45:09.237Z,2.84
2019-02-27T02:46:09.795Z,2.82
2019-02-27T02:47:09.224Z,2.71
2019-02-27T02:48:09.212Z,2.69
2019-02-27T02:49:09.226Z,2.66
2019-02-27T02:50:09.202Z,2.67
2019-02-27T02:51:09.201Z,2.61
2019-02-27T02:52:09.192Z,2.61
2019-02-27T02:53:09.182Z,2.71
2019-02-27T02:54:09.171Z,2.73
2019-02-27T02:55:12.749Z,2.76
2019-02-27T02:56:09.155Z,2.82
2019-02-27T02:57:09.156Z,2.81
2019-02-27T02:58:11.551Z,2.82
2019-02-27T02:59:09.139Z,2.85
2019-02-27T03:00:09.134Z,2.88
2019-02-27T03:01:14.164Z,2.82
2019-02-27T03:02:09.115Z,2.94
2019-02-27T03:03:09.108Z,2.92
2019-02-27T03:04:12.478Z,2.87
2019-02-27T03:05:09.095Z,2.85
2019-02-27T03:06:09.122Z,2.79
2019-02-27T03:07:10.840Z,2.74
2019-02-27T03:08:09.072Z,2.71
2019-02-27T03:09:09.063Z,2.58
2019-02-27T03:10:09.059Z,2.49
2019-02-27T03:11:09.062Z,2.41
2019-02-27T03:12:09.065Z,2.41
2019-02-27T03:13:09.058Z,2.34
2019-02-27T03:14:09.026Z,2.34
2019-02-27T03:15:09.028Z,2.28
2019-02-27T03:16:09.017Z,2.34
2019-02-27T03:17:09.006Z,2.34
2019-02-27T03:18:09.008Z,2.40
2019-02-27T03:19:08.992Z,2.44
2019-02-27T03:20:08.991Z,2.44
2019-02-27T03:21:08.980Z,2.56
2019-02-27T03:22:08.969Z,2.52
2019-02-27T03:23:08.963Z,2.51
2019-02-27T03:24:08.959Z,2.53
2019-02-27T03:25:08.958Z,2.55
2019-02-27T03:26:08.940Z,2.55
2019-02-27T03:27:08.932Z,2.55
2019-02-27T03:28:08.924Z,2.58
2019-02-27T03:29:08.926Z,2.55
2019-02-27T03:30:08.910Z,2.55
2019-02-27T03:31:16.394Z,2.49
2019-02-27T03:32:08.900Z,2.55
2019-02-27T03:33:08.894Z,2.52
2019-02-27T03:34:09.327Z,2.53
2019-02-27T03:35:08.874Z,2.63
2019-02-27T03:36:08.868Z,2.58
2019-02-27T03:37:13.082Z,2.61
2019-02-27T03:38:08.850Z,2.56
2019-02-27T03:39:08.847Z,2.63
2019-02-27T03:40:11.811Z,2.69
2019-02-27T03:41:08.831Z,2.71
2019-02-27T03:42:08.832Z,2.73
2019-02-27T03:43:10.483Z,2.73
2019-02-27T03:44:08.817Z,2.79
2019-02-27T03:45:08.798Z,2.77
2019-02-27T03:46:08.799Z,2.81
2019-02-27T03:47:08.782Z,2.87
2019-02-27T03:48:08.785Z,2.77
2019-02-27T03:49:08.767Z,2.81
2019-02-27T03:50:14.558Z,2.85
2019-02-27T03:51:08.757Z,2.85
2019-02-27T03:52:08.746Z,2.82
2019-02-27T03:53:11.107Z,2.82
2019-02-27T03:54:08.733Z,2.76
2019-02-27T03:55:08.723Z,2.79
2019-02-27T03:56:09.874Z,2.74
2019-02-27T03:57:08.738Z,2.66
2019-02-27T03:58:08.702Z,2.69
2019-02-27T03:59:08.695Z,2.67
2019-02-27T04:00:08.691Z,2.70
2019-02-27T04:01:08.679Z,2.67
2019-02-27T04:02:08.671Z,2.67
2019-02-27T04:03:08.663Z,2.58
2019-02-27T04:04:08.653Z,2.63
2019-02-27T04:05:08.656Z,2.51
2019-02-27T04:06:08.644Z,2.46
2019-02-27T04:07:08.637Z,2.46
2019-02-27T04:08:09.047Z,2.37
2019-02-27T04:09:08.622Z,2.46
2019-02-27T04:10:08.611Z,2.53
2019-02-27T04:11:08.630Z,2.52
2019-02-27T04:12:08.592Z,2.56
2019-02-27T04:13:08.587Z,2.56
2019-02-27T04:14:08.608Z,2.56
2019-02-27T04:15:08.581Z,2.59
2019-02-27T04:16:08.598Z,2.61
2019-02-27T04:17:08.558Z,2.61
2019-02-27T04:18:08.550Z,2.66
2019-02-27T04:19:08.541Z,2.71
2019-02-27T04:20:14.552Z,2.64
2019-02-27T04:21:08.529Z,2.56
2019-02-27T04:22:08.542Z,2.46
2019-02-27T04:23:11.461Z,2.51
2019-02-27T04:24:08.510Z,2.40
2019-02-27T04:25:08.510Z,2.28
2019-02-27T04:26:08.493Z,2.31
2019-02-27T04:27:08.497Z,2.34
2019-02-27T04:28:08.477Z,2.27
2019-02-27T04:29:08.637Z,2.35
2019-02-27T04:30:08.458Z,2.37
2019-02-27T04:31:08.457Z,2.22
2019-02-27T04:32:09.597Z,2.35
2019-02-27T04:33:08.438Z,2.23
2019-02-27T04:34:08.460Z,2.33
2019-02-27T04:35:08.422Z,2.22
2019-02-27T04:36:12.432Z,2.26
2019-02-27T04:37:08.408Z,2.23
2019-02-27T04:38:08.399Z,2.23
2019-02-27T04:39:08.390Z,2.19
2019-02-27T04:40:10.882Z,2.22
2019-02-27T04:41:08.381Z,2.27
2019-02-27T04:42:08.371Z,2.23
2019-02-27T04:43:08.363Z,2.33
2019-02-27T04:44:08.367Z,2.38
2019-02-27T04:45:12.003Z,2.40
2019-02-27T04:46:08.339Z,2.40
2019-02-27T04:47:08.331Z,2.46
2019-02-27T04:48:08.323Z,2.53
2019-02-27T04:49:08.313Z,2.51
2019-02-27T04:50:10.923Z,2.53
2019-02-27T04:51:08.321Z,2.51
2019-02-27T04:52:08.293Z,2.49
2019-02-27T04:53:08.302Z,2.52
2019-02-27T04:54:08.282Z,2.45
2019-02-27T04:55:08.267Z,2.45
2019-02-27T04:56:08.259Z,2.49
2019-02-27T04:57:08.252Z,2.51
2019-02-27T04:58:09.085Z,2.48
2019-02-27T04:59:08.245Z,2.48
2019-02-27T05:00:08.255Z,2.59
2019-02-27T05:01:08.221Z,2.59
2019-02-27T05:02:08.225Z,2.63
2019-02-27T05:03:08.223Z,2.71
2019-02-27T05:04:08.201Z,2.74
2019-02-27T05:05:08.755Z,2.73
2019-02-27T05:06:08.184Z,2.73
2019-02-27T05:07:08.179Z,2.66
2019-02-27T05:08:08.174Z,2.71
2019-02-27T05:09:08.166Z,2.70
2019-02-27T05:10:08.155Z,2.70
2019-02-27T05:11:08.178Z,2.70
2019-02-27T05:12:08.172Z,2.71
2019-02-27T05:13:08.132Z,2.66
2019-02-27T05:14:08.126Z,2.67
2019-02-27T05:15:08.118Z,2.66
2019-02-27T05:16:08.133Z,2.59
2019-02-27T05:17:08.101Z,2.55
2019-02-27T05:18:08.098Z,2.59
2019-02-27T05:19:08.087Z,2.59
2019-02-27T05:20:11.510Z,2.55
2019-02-27T05:21:08.104Z,2.53
2019-02-27T05:22:08.062Z,2.52
2019-02-27T05:23:08.051Z,2.48
2019-02-27T05:24:08.675Z,2.46
2019-02-27T05:25:08.065Z,2.56
2019-02-27T05:26:08.034Z,2.48
2019-02-27T05:27:08.027Z,2.51
2019-02-27T05:28:08.020Z,2.46
2019-02-27T05:29:08.008Z,2.44
2019-02-27T05:30:12.021Z,2.34
2019-02-27T05:31:07.996Z,2.35
2019-02-27T05:32:07.991Z,2.34
2019-02-27T05:33:08.010Z,2.33
2019-02-27T05:34:12.732Z,2.33
2019-02-27T05:35:07.966Z,2.28
2019-02-27T05:36:07.963Z,2.38
2019-02-27T05:37:09.472Z,2.41
2019-02-27T05:38:07.951Z,2.48
2019-02-27T05:39:07.939Z,2.58
2019-02-27T05:40:08.132Z,2.59
2019-02-27T05:41:07.919Z,2.67
2019-02-27T05:42:07.912Z,2.71
2019-02-27T05:43:07.903Z,2.84
2019-02-27T05:44:09.446Z,2.88
2019-02-27T05:45:07.914Z,2.89
2019-02-27T05:46:07.887Z,2.85
2019-02-27T05:47:08.653Z,2.87
2019-02-27T05:48:07.878Z,2.81
2019-02-27T05:49:07.865Z,2.77
2019-02-27T05:50:07.848Z,2.73
2019-02-27T05:51:10.735Z,2.64
2019-02-27T05:52:07.870Z,2.59
2019-02-27T05:53:07.854Z,2.53
2019-02-27T05:54:15.334Z,2.48
2019-02-27T05:56:02.085Z,2.46
2019-02-27T05:57:01.580Z,2.53
2019-02-27T05:58:56.375Z,2.46
2019-02-27T06:00:02.557Z,2.53
2019-02-27T06:01:49.088Z,2.53
2019-02-27T06:02:48.407Z,2.49
2019-02-27T06:04:41.845Z,2.61
2019-02-27T06:05:49.261Z,2.61
2019-02-27T06:07:34.076Z,2.51
2019-02-27T06:08:36.713Z,2.49
2019-02-27T06:10:28.602Z,2.52
2019-02-27T06:11:29.575Z,2.56
2019-02-27T06:13:20.525Z,2.52
2019-02-27T06:14:21.399Z,2.48
2019-02-27T06:16:13.137Z,2.45
2019-02-27T06:17:13.524Z,2.52
2019-02-27T06:19:05.980Z,2.53
2019-02-27T06:20:08.009Z,2.52
2019-02-27T06:21:59.396Z,2.59
2019-02-27T06:23:03.834Z,2.63
2019-02-27T06:24:52.420Z,2.61
2019-02-27T06:25:52.156Z,2.63
2019-02-27T06:27:45.152Z,2.74
2019-02-27T06:28:44.895Z,2.74
2019-02-27T06:30:37.869Z,2.81
2019-02-27T06:31:39.517Z,2.88
2019-02-27T06:32:37.674Z,2.94
2019-02-27T06:33:37.866Z,2.97
2019-02-27T06:34:37.644Z,3.02
2019-02-27T06:35:37.640Z,3.25
2019-02-27T06:36:42.020Z,3.58
2019-02-27T06:37:37.621Z,3.71
2019-02-27T06:38:37.613Z,3.71
2019-02-27T06:39:37.605Z,3.75
2019-02-27T06:40:42.030Z,4.12
2019-02-27T06:41:37.597Z,4.79
2019-02-27T06:42:37.581Z,5.49
2019-02-27T06:43:37.578Z,6.04
2019-02-27T06:44:39.327Z,6.56
2019-02-27T06:45:37.567Z,6.99
2019-02-27T06:46:37.558Z,7.31
2019-02-27T06:47:37.554Z,7.62
2019-02-27T06:48:37.550Z,7.99
2019-02-27T06:49:37.546Z,8.26
2019-02-27T06:50:37.550Z,8.54
2019-02-27T06:51:37.531Z,8.84
2019-02-27T06:52:37.536Z,9.18
2019-02-27T06:53:37.529Z,9.79
2019-02-27T06:54:37.858Z,10.06
2019-02-27T06:55:37.518Z,10.44
2019-02-27T06:56:37.511Z,10.70
2019-02-27T06:57:41.027Z,10.95
2019-02-27T06:58:37.506Z,11.28
2019-02-27T06:59:37.506Z,11.17
2019-02-27T07:00:37.502Z,11.03
2019-02-27T07:01:37.500Z,10.94
2019-02-27T07:02:37.497Z,10.74
2019-02-27T07:03:37.501Z,10.88
2019-02-27T07:04:39.494Z,11.10
2019-02-27T07:05:37.527Z,11.28
2019-02-27T07:06:37.493Z,11.57
2019-02-27T07:07:37.509Z,11.87
2019-02-27T07:08:38.177Z,12.12
2019-02-27T07:09:37.488Z,12.34
2019-02-27T07:10:37.488Z,12.66
2019-02-27T07:11:37.487Z,12.62
2019-02-27T07:12:37.488Z,12.78
2019-02-27T07:13:37.491Z,12.95
2019-02-27T07:14:39.087Z,13.12
2019-02-27T07:15:37.496Z,13.40
2019-02-27T07:16:37.494Z,13.44
2019-02-27T07:17:37.486Z,13.65
2019-02-27T07:18:41.474Z,13.65
2019-02-27T07:19:37.491Z,13.79
2019-02-27T07:20:37.490Z,14.04
2019-02-27T07:21:37.497Z,14.35
2019-02-27T07:22:37.511Z,14.54
2019-02-27T07:23:37.499Z,14.74
2019-02-27T07:24:37.509Z,14.80
2019-02-27T07:25:41.955Z,14.90
2019-02-27T07:26:37.505Z,15.09
2019-02-27T07:27:37.510Z,15.24
2019-02-27T07:28:37.515Z,15.59
2019-02-27T07:29:37.515Z,15.81
2019-02-27T07:30:39.887Z,15.78
2019-02-27T07:31:37.527Z,15.84
2019-02-27T07:32:37.526Z,16.06
2019-02-27T07:33:37.989Z,16.15
2019-02-27T07:34:37.531Z,16.23
2019-02-27T07:35:37.539Z,16.35
2019-02-27T07:36:38.521Z,16.33
2019-02-27T07:37:37.546Z,16.50
2019-02-27T07:38:37.552Z,16.41
2019-02-27T07:39:37.561Z,16.81
2019-02-27T07:40:37.564Z,16.93
2019-02-27T07:41:37.569Z,16.93
2019-02-27T07:42:37.572Z,16.62
2019-02-27T07:43:37.578Z,16.68
2019-02-27T07:44:37.583Z,16.75
2019-02-27T07:45:37.590Z,17.03
2019-02-27T07:46:37.599Z,17.22
2019-02-27T07:47:37.598Z,17.63
2019-02-27T07:48:37.607Z,17.67
2019-02-27T07:49:37.610Z,17.54
2019-02-27T07:50:37.618Z,17.41
2019-02-27T07:51:37.630Z,17.22
2019-02-27T07:52:37.630Z,17.41
2019-02-27T07:53:37.636Z,17.63
2019-02-27T07:54:37.659Z,17.91
2019-02-27T07:55:37.653Z,18.12
2019-02-27T07:56:37.657Z,18.22
2019-02-27T07:57:37.663Z,18.52
2019-02-27T07:58:37.669Z,18.72
2019-02-27T07:59:38.132Z,19.01
2019-02-27T08:00:37.698Z,19.17
2019-02-27T08:01:43.767Z,19.53
2019-02-27T08:02:37.693Z,19.80
2019-02-27T08:03:37.711Z,19.78
2019-02-27T08:04:37.712Z,19.83
2019-02-27T08:05:37.711Z,19.68
2019-02-27T08:06:38.485Z,19.55
2019-02-27T08:07:37.725Z,19.57
2019-02-27T08:08:37.732Z,19.60
2019-02-27T08:09:37.738Z,19.61
2019-02-27T08:10:37.744Z,19.76
2019-02-27T08:11:37.753Z,19.84
2019-02-27T08:12:37.757Z,20.02
2019-02-27T08:13:37.765Z,19.95
2019-02-27T08:14:37.934Z,20.09
2019-02-27T08:15:37.774Z,20.35
2019-02-27T08:16:37.780Z,20.56
2019-02-27T08:17:38.726Z,20.68
2019-02-27T08:18:38.240Z,20.90
2019-02-27T08:19:37.799Z,20.89
2019-02-27T08:20:37.808Z,21.04
2019-02-27T08:21:37.810Z,21.19
2019-02-27T08:22:37.827Z,21.11
2019-02-27T08:23:37.828Z,21.38
2019-02-27T08:24:37.830Z,21.56
2019-02-27T08:25:37.831Z,21.67
2019-02-27T08:26:37.842Z,21.92
2019-02-27T08:27:37.854Z,21.94
2019-02-27T08:28:37.854Z,21.76
2019-02-27T08:29:37.872Z,21.82
2019-02-27T08:30:37.869Z,21.79
2019-02-27T08:31:37.871Z,22.07
2019-02-27T08:32:37.880Z,22.14
2019-02-27T08:33:37.888Z,22.28
2019-02-27T08:34:37.892Z,22.39
2019-02-27T08:35:37.900Z,22.49
2019-02-27T08:36:37.909Z,22.43
2019-02-27T08:37:37.913Z,22.49
2019-02-27T08:38:37.935Z,22.54
2019-02-27T08:39:37.924Z,22.57
2019-02-27T08:40:37.934Z,22.78
2019-02-27T08:41:37.956Z,22.97
2019-02-27T08:42:40.252Z,23.22
2019-02-27T08:43:37.955Z,23.49
2019-02-27T08:44:37.962Z,23.34
2019-02-27T08:45:37.976Z,23.60
2019-02-27T08:46:37.977Z,23.76
2019-02-27T08:47:37.991Z,24.14
2019-02-27T08:48:37.992Z,24.32
2019-02-27T08:49:38.003Z,24.56
2019-02-27T08:50:38.012Z,24.92
2019-02-27T08:51:39.743Z,25.01
2019-02-27T08:52:38.027Z,25.05
2019-02-27T08:53:38.036Z,24.90
2019-02-27T08:54:38.045Z,24.29
2019-02-27T08:55:39.254Z,24.07
2019-02-27T08:56:38.066Z,23.65
2019-02-27T08:57:38.075Z,23.46
2019-02-27T08:58:38.085Z,23.29
2019-02-27T08:59:39.814Z,22.99
2019-02-27T09:00:38.109Z,23.27
2019-02-27T09:01:38.120Z,23.76
2019-02-27T09:02:39.663Z,23.72
2019-02-27T09:03:38.142Z,23.89
2019-02-27T09:04:38.152Z,24.22
2019-02-27T09:05:38.169Z,24.19
2019-02-27T09:06:38.173Z,24.41
2019-02-27T09:07:38.195Z,24.71
2019-02-27T09:08:38.202Z,24.35
2019-02-27T09:09:38.213Z,24.56
2019-02-27T09:10:38.225Z,24.68
2019-02-27T09:11:40.063Z,24.79
2019-02-27T09:12:40.208Z,24.97
2019-02-27T09:13:38.264Z,25.19
2019-02-27T09:14:38.279Z,25.19
2019-02-27T09:15:38.293Z,24.56
2019-02-27T09:16:38.305Z,24.17
2019-02-27T09:17:38.319Z,24.19
2019-02-27T09:18:38.331Z,24.59
2019-02-27T09:19:38.345Z,24.63
2019-02-27T09:20:38.369Z,24.13
2019-02-27T09:21:38.374Z,24.12
2019-02-27T09:22:38.387Z,24.04
2019-02-27T09:23:38.404Z,24.53
2019-02-27T09:24:38.417Z,24.69
2019-02-27T09:25:38.432Z,24.16
2019-02-27T09:26:38.444Z,24.42
2019-02-27T09:27:38.460Z,24.75
2019-02-27T09:28:38.475Z,24.69
2019-02-27T09:29:38.500Z,25.09
2019-02-27T09:30:38.507Z,25.53
2019-02-27T09:31:38.617Z,25.50
2019-02-27T09:32:38.539Z,25.59
2019-02-27T09:33:39.207Z,25.24
2019-02-27T09:34:38.568Z,24.75
2019-02-27T09:35:38.880Z,24.59
2019-02-27T09:36:43.012Z,24.60
2019-02-27T09:37:39.440Z,24.59
2019-02-27T09:38:38.631Z,23.90
2019-02-27T09:39:38.643Z,24.23
2019-02-27T09:40:39.572Z,24.14
2019-02-27T09:41:38.675Z,24.38
2019-02-27T09:42:38.691Z,24.56
2019-02-27T09:43:38.710Z,24.42
2019-02-27T09:44:38.734Z,24.82
2019-02-27T09:45:38.741Z,24.71
2019-02-27T09:46:38.754Z,24.38
2019-02-27T09:47:38.772Z,24.56
2019-02-27T09:48:40.293Z,24.20
2019-02-27T09:49:40.792Z,24.14
2019-02-27T09:50:38.845Z,23.43
2019-02-27T09:51:38.838Z,23.42
2019-02-27T09:52:38.857Z,23.58
2019-02-27T09:53:38.873Z,23.95
2019-02-27T09:54:38.889Z,24.12
2019-02-27T09:55:38.905Z,24.35
2019-02-27T09:56:38.922Z,24.57
2019-02-27T09:57:38.942Z,24.56
2019-02-27T09:58:38.956Z,24.01
2019-02-27T09:59:40.034Z,23.85
2019-02-27T10:00:39.018Z,23.47
2019-02-27T10:01:39.007Z,23.04
2019-02-27T10:02:39.025Z,22.80
2019-02-27T10:03:39.043Z,22.46
2019-02-27T10:04:39.064Z,21.44
2019-02-27T10:05:40.813Z,21.23
2019-02-27T10:06:40.397Z,20.96
2019-02-27T10:07:39.133Z,20.95
2019-02-27T10:08:39.145Z,20.83
2019-02-27T10:09:40.396Z,20.81
2019-02-27T10:10:39.166Z,20.64
2019-02-27T10:11:39.185Z,20.24
2019-02-27T10:12:39.202Z,20.20
2019-02-27T10:13:39.220Z,20.27
2019-02-27T10:14:39.240Z,20.86
2019-02-27T10:15:39.311Z,20.93
2019-02-27T10:16:39.276Z,20.49
2019-02-27T10:17:41.091Z,20.30
2019-02-27T10:18:39.309Z,20.06
2019-02-27T10:19:39.328Z,19.87
2019-02-27T10:20:39.346Z,19.72
2019-02-27T10:21:41.258Z,19.63
2019-02-27T10:22:39.390Z,19.69
2019-02-27T10:23:39.417Z,19.87
2019-02-27T10:24:39.419Z,19.95
2019-02-27T10:25:43.221Z,20.00
2019-02-27T10:26:39.473Z,20.27
2019-02-27T10:27:39.477Z,20.33
2019-02-27T10:28:39.863Z,20.53
2019-02-27T10:29:39.508Z,20.49
2019-02-27T10:30:39.528Z,20.61
2019-02-27T10:31:39.542Z,21.13
2019-02-27T10:32:39.581Z,21.32
2019-02-27T10:33:39.579Z,21.24
2019-02-27T10:34:39.592Z,20.93
2019-02-27T10:35:39.608Z,20.79
2019-02-27T10:36:39.626Z,20.64
2019-02-27T10:37:39.702Z,20.28
2019-02-27T10:38:40.422Z,20.38
2019-02-27T10:39:39.673Z,20.77
2019-02-27T10:40:39.687Z,21.30
2019-02-27T10:41:39.698Z,21.48
2019-02-27T10:42:39.710Z,21.39
2019-02-27T10:43:39.723Z,21.44
2019-02-27T10:44:39.736Z,21.60
2019-02-27T10:45:39.754Z,21.74
2019-02-27T10:46:39.762Z,21.78
2019-02-27T10:47:39.994Z,21.83
2019-02-27T10:48:39.796Z,22.13
2019-02-27T10:49:39.810Z,22.14
2019-02-27T10:50:39.801Z,22.23
2019-02-27T10:51:41.495Z,22.16
2019-02-27T10:52:39.823Z,22.35
2019-02-27T10:53:39.833Z,22.52
2019-02-27T10:54:39.966Z,22.56
2019-02-27T10:55:39.853Z,22.53
2019-02-27T10:56:39.863Z,22.56
2019-02-27T10:57:39.873Z,22.68
2019-02-27T10:58:39.880Z,22.67
2019-02-27T10:59:39.891Z,22.72
2019-02-27T11:00:39.907Z,22.82
2019-02-27T11:01:39.907Z,22.74
2019-02-27T11:02:39.914Z,22.56
2019-02-27T11:03:39.924Z,22.37
2019-02-27T11:04:39.933Z,22.01
2019-02-27T11:05:39.948Z,21.71
2019-02-27T11:06:39.947Z,21.56
2019-02-27T11:07:39.958Z,21.60
2019-02-27T11:08:39.974Z,21.63
2019-02-27T11:09:41.202Z,21.69
2019-02-27T11:10:39.979Z,21.83
2019-02-27T11:11:39.991Z,22.01
2019-02-27T11:12:39.998Z,22.09
2019-02-27T11:13:40.004Z,21.94
2019-02-27T11:14:40.016Z,21.94
2019-02-27T11:15:41.552Z,21.67
2019-02-27T11:16:40.032Z,21.72
2019-02-27T11:17:40.074Z,21.64
2019-02-27T11:18:40.039Z,21.76
2019-02-27T11:19:40.056Z,21.94
2019-02-27T11:20:40.057Z,21.90
2019-02-27T11:21:40.061Z,22.04
2019-02-27T11:22:40.068Z,21.97
2019-02-27T11:23:41.108Z,22.01
2019-02-27T11:24:40.081Z,22.02
2019-02-27T11:25:40.097Z,21.99
2019-02-27T11:26:40.099Z,21.98
2019-02-27T11:27:40.118Z,22.01
2019-02-27T11:28:40.111Z,21.98
2019-02-27T11:29:40.117Z,21.99
2019-02-27T11:30:40.123Z,22.10
2019-02-27T11:31:42.297Z,22.12
2019-02-27T11:32:40.137Z,22.17
2019-02-27T11:33:40.146Z,22.27
2019-02-27T11:34:40.160Z,22.20
2019-02-27T11:35:40.178Z,21.74
2019-02-27T11:36:40.163Z,21.56
2019-02-27T11:37:40.171Z,21.56
2019-02-27T11:38:40.177Z,21.57
2019-02-27T11:39:40.184Z,21.21
2019-02-27T11:40:42.591Z,20.68
2019-02-27T11:41:40.197Z,20.46
2019-02-27T11:42:40.212Z,20.13
2019-02-27T11:43:40.857Z,20.27
2019-02-27T11:44:40.265Z,20.51
2019-02-27T11:45:40.228Z,20.77
2019-02-27T11:46:40.228Z,20.65
2019-02-27T11:47:45.118Z,20.68
2019-02-27T11:48:40.245Z,20.79
2019-02-27T11:49:40.249Z,20.93
2019-02-27T11:50:40.258Z,20.87
2019-02-27T11:51:40.260Z,21.01
2019-02-27T11:52:48.540Z,20.95
2019-02-27T11:53:40.275Z,20.91
2019-02-27T11:54:42.949Z,20.89
2019-02-27T11:55:40.294Z,20.93
2019-02-27T11:56:40.319Z,20.96
2019-02-27T11:57:40.325Z,20.93
2019-02-27T11:58:40.305Z,20.87
2019-02-27T11:59:40.324Z,20.99
2019-02-27T12:00:40.329Z,20.81
2019-02-27T12:01:40.323Z,20.89
2019-02-27T12:04:12.701Z,20.93
2019-02-27T12:05:12.504Z,20.90
2019-02-27T12:07:05.777Z,20.61
2019-02-27T12:08:05.408Z,19.95
2019-02-27T12:09:58.573Z,19.79
2019-02-27T12:10:58.326Z,19.79
2019-02-27T12:11:58.312Z,19.70
2019-02-27T12:13:00.817Z,19.76
2019-02-27T12:13:58.276Z,19.86
2019-02-27T12:14:58.267Z,20.02
2019-02-27T12:15:58.335Z,20.13
2019-02-27T12:16:58.267Z,20.25
2019-02-27T12:18:00.511Z,20.38
2019-02-27T12:18:58.291Z,20.54
2019-02-27T12:19:58.281Z,20.54
2019-02-27T12:20:58.294Z,20.64
2019-02-27T12:22:00.314Z,20.68
2019-02-27T12:22:58.310Z,20.66
2019-02-27T12:23:58.305Z,20.69
2019-02-27T12:24:58.403Z,20.69
2019-02-27T12:25:59.903Z,20.72
2019-02-27T12:26:58.320Z,20.71
2019-02-27T12:27:58.332Z,20.86
2019-02-27T12:28:58.370Z,20.80
2019-02-27T12:30:00.095Z,20.80
2019-02-27T12:30:58.343Z,20.81
2019-02-27T12:31:58.367Z,20.84
2019-02-27T12:32:58.368Z,20.62
2019-02-27T12:34:02.479Z,20.74
2019-02-27T12:34:58.368Z,20.77
2019-02-27T12:35:58.388Z,20.68
2019-02-27T12:36:58.401Z,20.61
2019-02-27T12:37:58.385Z,20.64
2019-02-27T12:38:58.426Z,20.50
2019-02-27T12:39:58.398Z,20.49
2019-02-27T12:40:59.042Z,20.58
2019-02-27T12:41:58.431Z,20.51
2019-02-27T12:42:58.446Z,20.43
2019-02-27T12:43:58.436Z,20.50
2019-02-27T12:44:58.423Z,20.47
2019-02-27T12:46:01.048Z,20.41
2019-02-27T12:46:58.436Z,20.34
2019-02-27T12:47:58.441Z,20.23
2019-02-27T12:48:58.447Z,20.20
2019-02-27T12:49:58.478Z,20.20
2019-02-27T12:50:58.463Z,20.38
2019-02-27T12:51:58.464Z,20.35
2019-02-27T12:52:58.470Z,20.35
2019-02-27T12:53:58.471Z,20.34
2019-02-27T12:54:59.101Z,20.50
2019-02-27T12:55:58.516Z,20.59
2019-02-27T12:56:58.513Z,20.61
2019-02-27T12:57:58.493Z,20.49
2019-02-27T12:58:59.226Z,20.41
2019-02-27T12:59:58.508Z,20.49
2019-02-27T13:00:58.514Z,20.53
2019-02-27T13:01:58.520Z,20.65
2019-02-27T13:02:59.124Z,20.62
2019-02-27T13:03:58.545Z,20.65
2019-02-27T13:04:58.535Z,20.66
2019-02-27T13:06:00.962Z,20.66
2019-02-27T13:06:58.558Z,20.61
2019-02-27T13:07:58.589Z,20.64
2019-02-27T13:08:58.560Z,20.69
2019-02-27T13:09:59.367Z,20.66
2019-02-27T13:10:58.565Z,20.76
2019-02-27T13:11:58.573Z,20.80
2019-02-27T13:12:58.582Z,20.77
2019-02-27T13:13:59.715Z,20.83
2019-02-27T13:14:59.505Z,20.65
2019-02-27T13:15:58.592Z,20.83
2019-02-27T13:16:58.609Z,20.69
2019-02-27T13:17:58.618Z,20.62
2019-02-27T13:18:58.611Z,20.72
2019-02-27T13:19:58.618Z,20.64